Time;durP1;ratioP1;P1;durP2;ratioP2;P2;SDS_P1;SDS_P2;PMS_P1;PMS_P2;Temp;Humidity;BMP_temperature;BMP_pressure;BME280_temperature;BME280_humidity;BME280_pressure;Samples;Min_cycle;Max_cycle;Signal;HPM_P1;HPM_P2
2021/01/20 00:00:48;;;;;;;25.45;15.88;;;;;;;1.35;88.29;99816.59;1621950;86;22342;-80
2021/01/20 00:03:14;;;;;;;28.38;15.98;;;;;;;1.36;88.29;99821.27;1621939;86;21204;-80
2021/01/20 00:05:40;;;;;;;22.42;14.40;;;;;;;1.37;88.29;99812.38;1632886;87;21765;-80
2021/01/20 00:08:07;;;;;;;23.30;15.88;;;;;;;1.39;88.29;99811.11;1621301;87;21242;-80
2021/01/20 00:10:33;;;;;;;19.82;14.40;;;;;;;1.38;88.29;99809.41;1626319;86;22027;-80
2021/01/20 00:12:59;;;;;;;20.30;15.13;;;;;;;1.39;88.31;99812.38;1632795;86;21244;-80
2021/01/20 00:15:25;;;;;;;21.48;15.18;;;;;;;1.38;88.34;99811.95;1627775;87;21222;-80
2021/01/20 00:17:52;;;;;;;19.95;14.80;;;;;;;1.39;88.31;99814.93;1628336;86;21217;-80
2021/01/20 00:20:19;;;;;;;19.70;14.20;;;;;;;1.39;88.33;99816.20;1619359;86;21218;-80
2021/01/20 00:22:47;;;;;;;19.40;14.00;;;;;;;1.38;88.33;99816.63;1627346;87;21207;-80
2021/01/20 00:25:16;;;;;;;19.55;13.80;;;;;;;1.41;88.37;99822.16;1627296;86;21245;-80
2021/01/20 00:27:43;;;;;;;21.27;13.40;;;;;;;1.41;88.39;99815.38;1627059;87;21461;-80
2021/01/20 00:30:11;;;;;;;17.48;12.98;;;;;;;1.43;88.39;99814.11;1621715;86;21505;-80
2021/01/20 00:32:38;;;;;;;20.75;14.18;;;;;;;1.44;88.38;99818.37;1624393;86;21140;-80
2021/01/20 00:35:08;;;;;;;19.20;14.40;;;;;;;1.43;88.37;99807.75;1611075;86;21766;-80
2021/01/20 00:37:34;;;;;;;21.37;14.13;;;;;;;1.43;88.37;99811.14;1622593;86;21157;-80
2021/01/20 00:40:00;;;;;;;16.62;12.18;;;;;;;1.43;88.39;99813.69;1627141;86;25237;-80
2021/01/20 00:42:28;;;;;;;18.98;13.43;;;;;;;1.43;88.39;99806.47;1627265;86;24674;-80
2021/01/20 00:44:54;;;;;;;20.70;14.10;;;;;;;1.44;88.39;99808.17;1623786;86;21150;-79
2021/01/20 00:47:20;;;;;;;22.93;14.58;;;;;;;1.44;88.39;99805.63;1618831;87;21208;-79
2021/01/20 00:49:47;;;;;;;18.00;13.55;;;;;;;1.44;88.41;99810.73;1627075;87;21157;-79
2021/01/20 00:52:13;;;;;;;17.17;13.50;;;;;;;1.43;88.45;99802.23;1627114;86;21182;-80
2021/01/20 00:54:40;;;;;;;19.17;13.48;;;;;;;1.45;88.44;99805.64;1614387;86;21230;-80
2021/01/20 00:57:06;;;;;;;;;;;;;;;1.46;88.47;99802.67;1626525;86;21201;-80
2021/01/20 00:59:32;;;;;;;18.42;12.90;;;;;;;1.47;88.51;99804.38;1619254;86;21153;-80
2021/01/20 01:01:58;;;;;;;15.48;12.45;;;;;;;1.47;88.47;99805.66;1625539;88;21540;-80
2021/01/20 01:04:25;;;;;;;16.85;12.40;;;;;;;1.47;88.47;99798.87;1625713;86;21249;-80
2021/01/20 01:06:52;;;;;;;;;;;;;;;1.46;88.48;99794.61;1614627;87;21238;-80
2021/01/20 01:09:18;;;;;;;14.55;12.60;;;;;;;1.47;88.52;99798.87;1625551;86;20305;-80
2021/01/20 01:11:44;;;;;;;;;;;;;;;1.48;88.53;99795.90;1618293;87;21271;-80
2021/01/20 01:14:11;;;;;;;16.30;12.07;;;;;;;1.50;88.54;99796.77;1624968;88;25387;-80
2021/01/20 01:16:38;;;;;;;17.48;12.73;;;;;;;1.51;88.55;99787.00;1623141;86;21259;-80
2021/01/20 01:19:04;;;;;;;14.75;10.70;;;;;;;1.51;88.53;99781.48;1617408;87;21235;-80
2021/01/20 01:21:30;;;;;;;13.75;10.78;;;;;;;1.51;88.51;99781.48;1625951;86;21241;-80
2021/01/20 01:23:57;;;;;;;12.63;11.33;;;;;;;1.53;88.55;99781.50;1623043;87;21265;-80
2021/01/20 01:26:23;;;;;;;13.53;10.65;;;;;;;1.53;88.54;99782.77;1615560;88;21193;-80
2021/01/20 01:28:49;;;;;;;12.95;10.95;;;;;;;1.53;88.55;99779.81;1619076;87;21206;-80
2021/01/20 01:31:15;;;;;;;11.30;10.18;;;;;;;1.54;88.53;99778.11;1625997;87;21237;-80
2021/01/20 01:33:41;;;;;;;13.03;10.80;;;;;;;1.55;88.57;99781.09;1624621;86;21494;-80
2021/01/20 01:36:08;;;;;;;13.28;11.08;;;;;;;1.55;88.58;99781.95;1622037;88;21685;-80
2021/01/20 01:38:34;;;;;;;12.28;10.93;;;;;;;1.56;88.59;99777.25;1625804;88;21450;-80
2021/01/20 01:41:01;;;;;;;13.83;10.98;;;;;;;1.57;88.58;99775.13;1625813;87;21233;-80
2021/01/20 01:43:27;;;;;;;14.20;11.22;;;;;;;1.58;88.57;99779.81;1616726;86;21267;-80
2021/01/20 01:45:53;;;;;;;13.05;10.80;;;;;;;1.58;88.55;99779.38;1614625;86;21274;-80
2021/01/20 01:48:20;;;;;;;12.33;11.03;;;;;;;1.60;88.62;99776.42;1625919;87;21251;-80
2021/01/20 01:50:50;;;;;;;14.10;10.85;;;;;;;1.62;88.64;99776.44;1625617;87;21235;-80
2021/01/20 01:53:16;;;;;;;13.62;10.78;;;;;;;1.64;88.64;99775.61;1625086;86;21212;-80
2021/01/20 01:55:43;;;;;;;;;;;;;;;1.66;88.65;99779.02;1627992;86;21720;-80
2021/01/20 01:58:09;;;;;;;15.13;9.93;;;;;;;1.67;88.66;99778.59;1629073;86;20934;-80
2021/01/20 02:00:36;;;;;;;13.10;11.15;;;;;;;1.69;88.63;99770.54;1625125;86;21787;-80
2021/01/20 02:03:02;;;;;;;13.28;11.22;;;;;;;1.69;88.66;99773.51;1612543;87;21261;-80
2021/01/20 02:05:29;;;;;;;13.40;10.88;;;;;;;1.72;88.71;99777.34;1626839;86;21238;-80
2021/01/20 02:07:57;;;;;;;10.95;8.63;;;;;;;1.73;88.67;99773.95;1623229;88;21218;-80
2021/01/20 02:10:24;;;;;;;14.43;10.90;;;;;;;1.73;88.65;99778.63;1621488;87;21658;-80
2021/01/20 02:13:02;;;;;;;;;;;;;;;1.73;88.66;99779.91;1627964;87;21449;-80
2021/01/20 02:15:55;;;;;;;13.95;10.72;;;;;;;1.75;88.72;99775.67;1625554;86;20344;-80
2021/01/20 02:18:27;;;;;;;11.73;10.55;;;;;;;1.78;88.71;99779.94;1612690;87;21242;-80
2021/01/20 02:21:27;;;;;;;12.28;11.08;;;;;;;1.78;88.69;99777.39;1620074;86;21218;-80
2021/01/20 02:23:57;;;;;;;11.90;10.68;;;;;;;1.79;88.67;99777.82;1610484;86;21597;-79
2021/01/20 02:26:59;;;;;;;13.98;11.12;;;;;;;1.80;88.70;99779.52;1626023;86;21580;-80
2021/01/20 02:30:04;;;;;;;13.72;11.03;;;;;;;1.81;88.71;99783.36;1623261;87;21178;-80
2021/01/20 02:32:31;;;;;;;12.78;11.00;;;;;;;1.82;88.71;99784.21;1626250;87;21217;-80
2021/01/20 02:34:59;;;;;;;14.25;11.95;;;;;;;1.81;88.71;99789.73;1624345;86;21155;-80
2021/01/20 02:37:27;;;;;;;12.98;11.10;;;;;;;1.83;88.73;99795.69;1615795;86;21548;-80
2021/01/20 02:39:54;;;;;;;13.20;11.88;;;;;;;1.85;88.78;99794.42;1620900;86;21256;-79
2021/01/20 02:42:20;;;;;;;;;;;;;;;1.87;88.79;99790.19;1626048;86;21203;-79
2021/01/20 02:44:46;;;;;;;14.60;12.30;;;;;;;1.88;88.81;99792.75;1627787;86;20187;-79
2021/01/20 02:47:12;;;;;;;15.48;13.05;;;;;;;1.90;88.79;99797.44;1618714;87;21173;-79
2021/01/20 02:49:39;;;;;;;16.32;12.73;;;;;;;1.91;88.82;99793.19;1627008;86;21174;-79
2021/01/20 02:52:29;;;;;;;16.82;11.93;;;;;;;1.93;88.85;99791.50;1621963;87;21592;-79
2021/01/20 02:54:57;;;;;;;16.07;12.82;;;;;;;1.96;88.86;99787.27;1624099;86;22308;-79
2021/01/20 02:57:26;;;;;;;14.70;12.58;;;;;;;1.97;88.83;99786.84;1616519;87;21187;-79
2021/01/20 02:59:55;;;;;;;13.32;10.93;;;;;;;2.01;88.86;99791.55;1625651;87;21235;-79
2021/01/20 03:02:22;;;;;;;13.80;11.88;;;;;;;2.02;88.88;99785.59;1607328;87;21237;-79
2021/01/20 03:04:50;;;;;;;13.05;10.93;;;;;;;2.04;88.90;99787.73;1624395;86;21294;-79
2021/01/20 03:07:19;;;;;;;13.10;10.70;;;;;;;2.07;88.88;99787.75;1607920;86;21234;-79
2021/01/20 03:09:46;;;;;;;11.55;9.50;;;;;;;2.07;88.87;99785.20;1619845;87;21224;-79
2021/01/20 03:12:12;;;;;;;;;;;;;;;2.08;88.86;99792.00;1627589;87;21213;-80
2021/01/20 03:14:42;;;;;;;12.15;10.10;;;;;;;2.10;88.88;99791.56;1621037;86;20207;-79
2021/01/20 03:17:08;;;;;;;14.60;10.72;;;;;;;2.11;88.91;99786.89;1615914;87;21415;-79
2021/01/20 03:19:34;;;;;;;13.93;10.00;;;;;;;2.13;88.92;99788.60;1624153;86;21291;-79
2021/01/20 03:22:00;;;;;;;14.90;11.22;;;;;;;2.15;88.95;99791.16;1631923;86;21230;-79
2021/01/20 03:24:27;;;;;;;13.93;11.40;;;;;;;2.17;88.96;99790.32;1628501;87;21231;-79
2021/01/20 03:26:53;;;;;;;14.60;11.22;;;;;;;2.21;88.97;99791.19;1631982;86;21852;-79
2021/01/20 03:29:19;;;;;;;15.40;13.45;;;;;;;2.22;88.95;99789.06;1630781;86;21891;-79
2021/01/20 03:31:46;;;;;;;19.05;15.63;;;;;;;2.23;88.97;99789.08;1633198;86;21848;-79
2021/01/20 03:34:12;;;;;;;17.25;13.13;;;;;;;2.25;88.94;99789.94;1633241;86;21758;-79
2021/01/20 03:36:38;;;;;;;17.05;15.00;;;;;;;2.26;88.92;99787.81;1624062;86;21659;-80
2021/01/20 03:39:04;;;;;;;15.55;12.35;;;;;;;2.26;88.92;99782.71;1628866;87;21606;-79
2021/01/20 03:41:31;;;;;;;14.43;12.93;;;;;;;2.28;88.93;99792.50;1616585;86;21241;-79
2021/01/20 03:43:57;;;;;;;14.55;13.05;;;;;;;2.31;88.95;99792.52;1630499;86;21234;-79
2021/01/20 03:46:23;;;;;;;14.00;12.45;;;;;;;2.33;88.97;99785.72;1627051;87;22428;-79
2021/01/20 03:48:49;;;;;;;13.55;12.15;;;;;;;2.35;88.98;99786.14;1633130;86;21649;-79
2021/01/20 03:51:16;;;;;;;14.87;13.00;;;;;;;2.37;89.00;99784.03;1624147;87;21222;-79
2021/01/20 03:53:42;;;;;;;15.88;12.25;;;;;;;2.38;89.01;99790.84;1632932;86;21217;-79
2021/01/20 03:56:09;;;;;;;15.70;12.25;;;;;;;2.40;88.99;99779.36;1628272;87;21257;-79
2021/01/20 03:58:35;;;;;;;13.50;12.10;;;;;;;2.42;89.02;99782.77;1624538;86;21254;-79
2021/01/20 04:01:01;;;;;;;15.93;12.70;;;;;;;2.44;89.04;99784.91;1632854;86;21682;-79
2021/01/20 04:03:27;;;;;;;14.60;12.55;;;;;;;2.47;89.06;99784.49;1632916;87;21196;-79
2021/01/20 04:05:54;;;;;;;14.73;12.65;;;;;;;2.50;89.03;99784.92;1631362;86;21262;-79
2021/01/20 04:08:20;;;;;;;13.05;11.75;;;;;;;2.52;89.06;99789.19;1625070;87;21205;-79
2021/01/20 04:10:46;;;;;;;13.48;11.85;;;;;;;2.53;89.03;99791.31;1632499;86;21224;-79
2021/01/20 04:13:12;;;;;;;10.45;9.38;;;;;;;2.54;89.04;99792.60;1632993;86;21272;-79
2021/01/20 04:15:39;;;;;;;12.50;11.18;;;;;;;2.56;89.07;99792.61;1631482;87;21214;-79
2021/01/20 04:18:05;;;;;;;14.65;11.43;;;;;;;2.58;89.07;99793.03;1619744;86;21566;-79
2021/01/20 04:20:31;;;;;;;12.90;11.40;;;;;;;2.61;89.08;99800.67;1625617;86;21263;-79
2021/01/20 04:22:58;;;;;;;12.70;10.88;;;;;;;2.63;89.09;99801.95;1624517;86;21204;-79
2021/01/20 04:25:24;;;;;;;13.15;10.95;;;;;;;2.64;89.09;99798.55;1616817;86;21142;-79
2021/01/20 04:27:50;;;;;;;12.18;10.90;;;;;;;2.65;89.08;99802.38;1627194;87;21143;-79
2021/01/20 04:30:18;;;;;;;12.30;10.82;;;;;;;2.66;89.08;99799.41;1623317;87;21903;-79
2021/01/20 04:32:44;;;;;;;12.07;10.05;;;;;;;2.69;89.07;99802.39;1624392;87;21156;-79
2021/01/20 04:35:11;;;;;;;11.43;9.33;;;;;;;2.69;89.10;99796.86;1626663;86;21155;-79
2021/01/20 04:37:37;;;;;;;10.18;9.25;;;;;;;2.72;89.11;99793.47;1621765;87;21152;-79
2021/01/20 04:40:05;;;;;;;12.07;9.43;;;;;;;2.73;89.12;99796.45;1626000;87;21634;-79
2021/01/20 04:42:33;;;;;;;10.43;9.43;;;;;;;2.74;89.13;99795.17;1622139;86;21356;-79
2021/01/20 04:45:00;;;;;;;10.20;9.30;;;;;;;2.77;89.15;99798.16;1617572;86;21176;-79
2021/01/20 04:47:27;;;;;;;;;;;;;;;2.79;89.15;99798.59;1628938;86;21424;-79
2021/01/20 04:49:55;;;;;;;9.13;8.18;;;;;;;2.80;89.14;99795.19;1625934;87;20399;-79
2021/01/20 04:52:23;;;;;;;10.18;9.20;;;;;;;2.80;89.15;99789.23;1594405;88;21262;-79
2021/01/20 04:54:50;;;;;;;10.08;9.13;;;;;;;2.82;89.14;99791.37;1625416;87;21281;-79
2021/01/20 04:57:16;;;;;;;10.88;9.78;;;;;;;2.82;89.13;99786.27;1618696;87;21259;-79
2021/01/20 04:59:43;;;;;;;10.50;9.53;;;;;;;2.83;89.13;99790.09;1612800;86;21256;-80
2021/01/20 05:02:11;;;;;;;11.12;10.03;;;;;;;2.83;89.12;99792.65;1614601;87;21277;-80
2021/01/20 05:04:41;;;;;;;9.20;8.30;;;;;;;2.84;89.10;99789.67;1619055;86;21250;-80
2021/01/20 05:07:08;;;;;;;9.35;8.50;;;;;;;2.83;89.08;99786.69;1613492;86;21648;-79
2021/01/20 05:09:35;;;;;;;11.97;9.78;;;;;;;2.83;89.13;99791.80;1623944;86;21191;-79
2021/01/20 05:12:02;;;;;;;10.88;9.48;;;;;;;2.86;89.14;99794.35;1614793;87;21206;-79
2021/01/20 05:14:28;;;;;;;9.55;8.60;;;;;;;2.84;89.11;99795.63;1624874;86;21207;-79
2021/01/20 05:17:00;;;;;;;9.85;8.85;;;;;;;2.86;89.13;99796.48;1625743;86;21195;-79
2021/01/20 05:19:39;;;;;;;9.75;8.93;;;;;;;2.86;89.14;99798.19;1622892;87;22218;-79
2021/01/20 05:22:08;;;;;;;10.13;9.23;;;;;;;2.85;89.10;99791.38;1611920;87;21209;-79
2021/01/20 05:24:36;;;;;;;9.68;8.78;;;;;;;2.85;89.10;99793.50;1624180;86;22104;-79
2021/01/20 05:27:04;;;;;;;9.20;8.45;;;;;;;2.86;89.13;99793.93;1623673;86;21214;-79
2021/01/20 05:29:31;;;;;;;9.63;8.78;;;;;;;2.86;89.12;99791.80;1625978;86;21237;-79
2021/01/20 05:32:15;;;;;;;9.40;8.60;;;;;;;2.84;89.09;99791.80;1627569;86;21967;-79
2021/01/20 05:34:42;;;;;;;9.40;8.58;;;;;;;2.83;89.12;99791.38;1631070;86;21263;-79
2021/01/20 05:37:11;;;;;;;10.32;9.35;;;;;;;2.84;89.13;99798.18;1619301;86;21219;-80
2021/01/20 05:39:39;;;;;;;10.43;9.53;;;;;;;2.84;89.13;99793.50;1622887;86;21202;-80
2021/01/20 05:42:11;;;;;;;11.80;9.05;;;;;;;2.83;89.15;99796.48;1602953;87;21232;-80
2021/01/20 05:44:39;;;;;;;12.25;9.65;;;;;;;2.86;89.15;99803.30;1608208;87;22244;-80
2021/01/20 05:47:11;;;;;;;10.70;9.65;;;;;;;2.85;89.15;99806.27;1609310;87;21219;-80
2021/01/20 05:49:39;;;;;;;10.40;9.38;;;;;;;2.83;89.10;99799.45;1601509;87;21271;-80
2021/01/20 05:52:16;;;;;;;10.95;9.93;;;;;;;2.81;89.12;99802.42;1605208;87;21208;-77
2021/01/20 05:54:43;;;;;;;10.53;9.58;;;;;;;2.81;89.12;99801.16;1608497;87;21247;-80
2021/01/20 05:57:21;;;;;;;11.48;10.45;;;;;;;2.81;89.14;99806.25;1610024;87;21382;-80
2021/01/20 05:59:50;;;;;;;10.65;9.65;;;;;;;2.81;89.16;99810.94;1605946;87;21242;-79
2021/01/20 06:02:19;;;;;;;10.60;9.68;;;;;;;2.83;89.18;99812.22;1607327;87;21248;-79
2021/01/20 06:04:46;;;;;;;11.65;10.65;;;;;;;2.82;89.16;99811.37;1606119;87;21154;-79
2021/01/20 06:07:15;;;;;;;11.25;10.13;;;;;;;2.81;89.13;99817.32;1603970;87;21175;-80
2021/01/20 06:09:44;;;;;;;11.63;10.43;;;;;;;2.80;89.14;99819.45;1608987;87;21274;-80
2021/01/20 06:12:13;;;;;;;10.88;9.78;;;;;;;2.81;89.12;99817.75;1614708;88;21199;-80
2021/01/20 06:14:40;;;;;;;10.35;9.35;;;;;;;2.78;89.13;99821.14;1603041;87;21670;-77
2021/01/20 06:17:22;;;;;;;9.68;8.73;;;;;;;2.79;89.12;99823.27;1606771;87;21225;-80
2021/01/20 06:19:50;;;;;;;11.73;9.15;;;;;;;2.79;89.13;99824.55;1605094;87;21270;-80
2021/01/20 06:22:18;;;;;;;9.10;8.30;;;;;;;2.79;89.13;99833.48;1613549;87;21255;-81
2021/01/20 06:24:52;;;;;;;9.28;8.48;;;;;;;2.79;89.15;99838.59;1610808;87;22377;-80
2021/01/20 06:27:49;;;;;;;9.45;8.60;;;;;;;2.80;89.15;99850.50;1623843;86;21776;-80
2021/01/20 06:30:23;;;;;;;9.58;8.70;;;;;;;2.78;89.12;99847.95;1587623;88;21225;-80
2021/01/20 06:32:50;;;;;;;10.95;9.85;;;;;;;2.78;89.13;99845.39;1637845;86;21265;-80
2021/01/20 06:35:17;;;;;;;9.98;9.05;;;;;;;2.79;89.13;99848.80;1631247;86;21210;-80
2021/01/20 06:37:46;;;;;;;9.18;8.28;;;;;;;2.79;89.17;99842.41;1626262;87;21226;-80
2021/01/20 06:40:24;;;;;;;9.05;8.25;;;;;;;2.78;89.13;99841.56;1633469;86;21171;-80
2021/01/20 06:42:51;;;;;;;9.60;8.68;;;;;;;2.78;89.12;99839.44;1625141;86;21156;-80
2021/01/20 06:45:26;;;;;;;10.65;9.65;;;;;;;2.77;89.13;99841.56;1623528;86;21138;-80
2021/01/20 06:48:05;;;;;;;12.25;10.55;;;;;;;2.77;89.14;99839.00;1628490;86;21633;-80
2021/01/20 06:50:35;;;;;;;12.40;10.35;;;;;;;2.77;89.14;99839.00;1626229;86;21176;-80
2021/01/20 06:53:10;;;;;;;13.03;10.93;;;;;;;2.75;89.11;99840.28;1611260;87;21154;-80
2021/01/20 06:55:39;;;;;;;16.00;12.07;;;;;;;2.76;89.14;99836.02;1613354;88;21135;-80
2021/01/20 06:58:27;;;;;;;16.37;11.48;;;;;;;2.74;89.10;99833.89;1612511;87;21238;-80
2021/01/20 07:01:04;;;;;;;21.95;12.35;;;;;;;2.72;89.10;99843.24;1611862;87;21909;-80
2021/01/20 07:03:47;;;;;;;19.35;12.10;;;;;;;2.72;89.10;99838.14;1618496;87;21769;-81
2021/01/20 07:06:39;;;;;;;18.05;12.58;;;;;;;2.70;89.10;99841.11;1601856;87;21262;-80
2021/01/20 07:09:11;;;;;;;22.48;13.30;;;;;;;2.69;89.13;99834.30;1610555;87;21291;-77
2021/01/20 07:11:59;;;;;;;23.50;13.75;;;;;;;2.69;89.12;99846.64;1597706;87;21242;-77
2021/01/20 07:14:33;;;;;;;24.43;15.15;;;;;;;2.66;89.12;99844.08;1613441;87;21225;-80
2021/01/20 07:17:00;;;;;;;22.98;14.73;;;;;;;2.68;89.14;99853.02;1609213;88;21251;-80
2021/01/20 07:19:27;;;;;;;18.98;13.43;;;;;;;2.68;89.15;99844.93;1584582;88;21230;-80
2021/01/20 07:21:57;;;;;;;18.07;13.48;;;;;;;2.68;89.13;99853.86;1574674;89;21237;-80
2021/01/20 07:24:23;;;;;;;19.40;13.72;;;;;;;2.66;89.14;99844.92;1572937;88;21634;-79
2021/01/20 07:26:51;;;;;;;17.80;13.38;;;;;;;2.66;89.13;99844.08;1576057;89;21262;-80
2021/01/20 07:29:19;;;;;;;22.50;12.73;;;;;;;2.65;89.14;99845.77;1578078;88;21234;-80
2021/01/20 07:31:50;;;;;;;18.60;11.73;;;;;;;2.66;89.16;99841.09;1631308;85;31111;-80
2021/01/20 07:34:17;;;;;;;20.60;13.32;;;;;;;2.67;89.16;99840.67;1636631;85;21243;-79
2021/01/20 07:36:45;;;;;;;22.05;14.15;;;;;;;2.68;89.13;99844.08;1653106;85;21222;-79
2021/01/20 07:39:23;;;;;;;24.90;14.53;;;;;;;2.69;89.13;99842.81;1634407;85;21353;-79
2021/01/20 07:41:57;;;;;;;23.70;15.78;;;;;;;2.69;89.15;99842.81;1629341;86;21234;-80
2021/01/20 07:44:25;;;;;;;24.10;14.78;;;;;;;2.69;89.13;99845.78;1634891;85;21766;-80
2021/01/20 07:47:05;;;;;;;24.20;15.63;;;;;;;2.71;89.15;99846.64;1656644;85;21615;-80
2021/01/20 07:49:33;;;;;;;23.67;14.95;;;;;;;2.71;89.13;99849.20;1635108;85;21226;-80
2021/01/20 07:52:05;;;;;;;24.35;15.68;;;;;;;2.72;89.14;99854.73;1649426;85;21686;-80
2021/01/20 07:54:51;;;;;;;23.65;15.03;;;;;;;2.74;89.15;99852.61;1634738;87;21565;-80
2021/01/20 07:57:17;;;;;;;23.47;13.65;;;;;;;2.75;89.12;99855.59;1629260;87;21648;-80
2021/01/20 07:59:44;;;;;;;22.73;14.47;;;;;;;2.76;89.14;99856.02;1650077;85;21210;-80
2021/01/20 08:02:16;;;;;;;23.57;14.20;;;;;;;2.78;89.12;99857.30;1630250;86;21238;-80
2021/01/20 08:04:42;;;;;;;27.62;15.78;;;;;;;2.80;89.15;99859.44;1640405;86;21266;-81
2021/01/20 08:07:14;;;;;;;;;;;;;;;2.80;89.15;99855.19;1621210;86;21246;-80
2021/01/20 08:09:43;;;;;;;24.18;14.93;;;;;;;2.82;89.16;99855.19;1634828;85;20324;-80
2021/01/20 08:12:21;;;;;;;20.35;13.28;;;;;;;2.83;89.17;99856.89;1635698;85;21223;-80
2021/01/20 08:14:48;;;;;;;17.35;13.05;;;;;;;2.86;89.18;99855.63;1638239;87;21219;-80
2021/01/20 08:17:14;;;;;;;;;;;;;;;2.86;89.14;99855.20;1639817;85;21230;-80
2021/01/20 08:19:43;;;;;;;16.25;11.73;;;;;;;2.88;89.16;99858.62;1639913;86;20572;-80
2021/01/20 08:22:16;;;;;;;17.85;12.73;;;;;;;2.91;89.17;99856.07;1651782;86;21235;-80
2021/01/20 08:24:51;;;;;;;19.73;12.78;;;;;;;2.94;89.16;99850.97;1644876;86;21451;-80
2021/01/20 08:27:29;;;;;;;18.37;11.88;;;;;;;2.97;89.17;99857.79;1634287;85;21734;-80
2021/01/20 08:29:58;;;;;;;18.12;10.13;;;;;;;3.00;89.18;99860.35;1615657;87;22194;-80
2021/01/20 08:32:27;;;;;;;13.88;10.23;;;;;;;3.04;89.16;99862.06;1649352;86;21136;-80
2021/01/20 08:34:55;;;;;;;19.17;10.18;;;;;;;3.06;89.14;99861.64;1634520;85;21161;-81
2021/01/20 08:37:39;;;;;;;11.35;8.73;;;;;;;3.09;89.12;99865.91;1646401;86;21710;-80
2021/01/20 08:40:08;;;;;;;13.38;9.58;;;;;;;3.10;89.07;99862.50;1655250;85;21233;-80
2021/01/20 08:42:40;;;;;;;15.78;10.48;;;;;;;3.11;89.06;99862.93;1651285;85;21399;-80
2021/01/20 08:45:24;;;;;;;16.50;10.72;;;;;;;3.13;89.05;99867.16;1645079;85;21138;-80
2021/01/20 08:47:55;;;;;;;20.65;12.03;;;;;;;3.15;89.07;99864.61;1643278;85;21171;-80
2021/01/20 08:50:43;;;;;;;22.30;13.78;;;;;;;3.14;89.02;99862.48;1659764;84;21162;-80
2021/01/20 08:53:28;;;;;;;13.68;10.55;;;;;;;3.13;88.98;99870.99;1656849;84;21146;-80
2021/01/20 08:55:56;;;;;;;12.45;9.65;;;;;;;3.13;88.99;99859.92;1658930;84;22121;-80
2021/01/20 08:58:33;;;;;;;12.85;9.23;;;;;;;3.12;89.00;99856.52;1651924;86;21234;-80
2021/01/20 09:01:09;;;;;;;14.20;8.73;;;;;;;3.11;88.92;99850.16;1659956;86;21169;-80
2021/01/20 09:03:37;;;;;;;13.13;9.83;;;;;;;3.08;88.93;99851.44;1647526;86;21218;-80
2021/01/20 09:06:13;;;;;;;13.45;9.80;;;;;;;3.06;88.96;99850.58;1655358;84;21230;-79
2021/01/20 09:08:40;;;;;;;15.93;10.60;;;;;;;3.05;88.95;99857.38;1659348;84;21213;-80
2021/01/20 09:11:06;;;;;;;16.82;10.93;;;;;;;3.03;88.97;99847.59;1658318;84;21755;-80
2021/01/20 09:13:33;;;;;;;16.40;11.00;;;;;;;3.04;89.03;99848.02;1641295;85;21229;-81
2021/01/20 09:16:00;;;;;;;17.27;11.78;;;;;;;3.07;89.06;99852.28;1648962;86;21253;-81
2021/01/20 09:18:27;;;;;;;16.75;10.38;;;;;;;3.10;89.07;99848.45;1654890;86;21217;-80
2021/01/20 09:20:55;;;;;;;19.48;12.60;;;;;;;3.15;89.09;99858.23;1636378;85;22074;-80
2021/01/20 09:23:25;;;;;;;17.32;11.50;;;;;;;3.18;89.11;99851.42;1631635;86;21246;-80
2021/01/20 09:25:50;;;;;;;17.57;11.48;;;;;;;3.22;89.09;99842.06;1623608;85;21214;-79
2021/01/20 09:28:17;;;;;;;18.67;11.60;;;;;;;3.27;89.08;99845.05;1643690;85;21217;-80
2021/01/20 09:30:43;;;;;;;12.63;10.28;;;;;;;3.31;89.10;99846.75;1647379;85;21812;-79
2021/01/20 09:33:10;;;;;;;17.67;11.80;;;;;;;3.34;89.09;99845.91;1647223;85;21786;-80
2021/01/20 09:35:39;;;;;;;;;;;;;;;3.35;89.05;99842.92;1649040;85;21213;-80
2021/01/20 09:38:06;;;;;;;15.98;11.12;;;;;;;3.38;89.03;99834.84;1642489;85;20294;-81
2021/01/20 09:40:37;;;;;;;20.95;12.60;;;;;;;3.40;89.02;99837.39;1647216;85;21738;-81
2021/01/20 09:43:02;;;;;;;19.50;12.80;;;;;;;3.43;89.02;99841.23;1646752;85;21281;-81
2021/01/20 09:45:31;;;;;;;;;;;;;;;3.44;89.03;99836.13;1649503;85;22060;-82
2021/01/20 09:48:00;;;;;;;18.52;12.47;;;;;;;3.45;89.00;99832.71;1612106;86;20530;-81
2021/01/20 09:50:33;;;;;;;19.98;12.43;;;;;;;3.47;89.02;99837.40;1635877;85;21424;-81
2021/01/20 09:53:00;;;;;;;14.50;10.90;;;;;;;3.50;89.01;99839.11;1643639;85;21180;-81
2021/01/20 09:55:28;;;;;;;18.50;11.73;;;;;;;3.52;89.00;99834.84;1646370;85;21220;-81
2021/01/20 09:58:03;;;;;;;17.92;11.57;;;;;;;3.52;88.96;99834.84;1644260;86;21200;-80
2021/01/20 10:00:27;;;;;;;17.45;11.10;;;;;;;3.52;88.96;99839.95;1671884;84;21244;-81
2021/01/20 10:02:54;;;;;;;15.38;11.00;;;;;;;3.53;88.92;99834.84;1670794;85;21233;-81
2021/01/20 10:05:22;;;;;;;14.18;10.32;;;;;;;3.53;88.92;99833.56;1671732;85;21239;-81
2021/01/20 10:07:49;;;;;;;16.82;11.70;;;;;;;3.55;88.96;99828.03;1665557;84;21676;-81
2021/01/20 10:10:16;;;;;;;15.53;11.53;;;;;;;3.58;88.96;99831.01;1672920;84;21237;-81
2021/01/20 10:12:42;;;;;;;17.45;11.35;;;;;;;3.60;88.96;99825.05;1650168;85;21714;-80
2021/01/20 10:15:09;;;;;;;20.52;12.25;;;;;;;3.61;88.93;99829.73;1650660;85;21225;-80
2021/01/20 10:17:37;;;;;;;19.62;11.68;;;;;;;3.63;88.98;99825.05;1673472;85;21252;-80
2021/01/20 10:20:06;;;;;;;19.45;12.82;;;;;;;3.67;88.94;99822.03;1651274;84;21587;-80
2021/01/20 10:22:32;;;;;;;17.12;11.85;;;;;;;3.69;88.96;99819.47;1645690;85;21196;-80
2021/01/20 10:24:58;;;;;;;20.88;11.57;;;;;;;3.71;88.96;99813.50;1643416;85;21929;-79
2021/01/20 10:27:27;;;;;;;24.02;12.23;;;;;;;3.76;89.00;99814.77;1644971;85;21154;-80
2021/01/20 10:29:53;;;;;;;14.55;11.18;;;;;;;3.79;88.99;99809.23;1639066;86;21675;-80
2021/01/20 10:32:22;;;;;;;20.92;11.97;;;;;;;3.82;88.95;99810.93;1645610;85;21154;-80
2021/01/20 10:34:49;;;;;;;18.02;11.48;;;;;;;3.87;88.98;99816.46;1640687;85;21563;-80
2021/01/20 10:37:15;;;;;;;20.45;12.55;;;;;;;3.93;89.02;99806.22;1644560;85;21182;-80
2021/01/20 10:39:42;;;;;;;18.27;12.47;;;;;;;3.99;89.06;99807.48;1643234;87;21145;-82
2021/01/20 10:42:08;;;;;;;19.85;12.75;;;;;;;4.08;89.03;99809.60;1645615;85;21170;-80
2021/01/20 10:44:35;;;;;;;19.42;11.10;;;;;;;4.18;89.15;99803.14;1638022;85;21149;-80
2021/01/20 10:47:01;;;;;;;18.82;11.55;;;;;;;4.26;89.03;99810.37;1637409;87;22091;-80
2021/01/20 10:49:27;;;;;;;15.40;10.88;;;;;;;4.30;88.92;99803.53;1642537;85;21153;-80
2021/01/20 10:51:53;;;;;;;17.25;11.55;;;;;;;4.31;88.78;99802.68;1646157;85;21134;-81
2021/01/20 10:54:22;;;;;;;14.98;10.82;;;;;;;4.30;88.68;99808.66;1641040;85;21189;-80
2021/01/20 10:56:48;;;;;;;19.57;11.65;;;;;;;4.27;88.62;99803.11;1639426;86;21201;-80
2021/01/20 10:59:16;;;;;;;18.62;12.10;;;;;;;4.27;88.67;99800.98;1643310;86;21356;-81
2021/01/20 11:01:43;;;;;;;18.30;10.85;;;;;;;4.28;88.71;99795.86;1637945;85;21213;-81
2021/01/20 11:04:16;;;;;;;19.65;12.20;;;;;;;4.31;88.72;99794.57;1639818;87;21759;-82
2021/01/20 11:06:41;;;;;;;19.32;12.63;;;;;;;4.34;88.75;99802.67;1642640;85;21349;-81
2021/01/20 11:09:07;;;;;;;21.65;11.97;;;;;;;4.37;88.74;99791.14;1648341;85;21677;-81
2021/01/20 11:11:33;;;;;;;17.07;11.53;;;;;;;4.40;88.68;99789.84;1639757;85;21268;-81
2021/01/20 11:14:03;;;;;;;19.48;11.95;;;;;;;4.42;88.67;99790.69;1636652;86;21259;-81
2021/01/20 11:16:32;;;;;;;19.65;11.90;;;;;;;4.45;88.67;99791.11;1644539;85;21601;-81
2021/01/20 11:18:58;;;;;;;21.25;12.10;;;;;;;4.46;88.63;99790.25;1645198;85;21209;-81
2021/01/20 11:21:25;;;;;;;23.98;12.35;;;;;;;4.47;88.60;99790.24;1638137;84;21234;-81
2021/01/20 11:23:51;;;;;;;17.45;12.68;;;;;;;4.47;88.55;99788.97;1648722;85;21229;-81
2021/01/20 11:26:18;;;;;;;22.50;13.50;;;;;;;4.48;88.58;99792.38;1647279;87;21783;-81
2021/01/20 11:28:44;;;;;;;24.00;13.35;;;;;;;4.52;88.63;99792.78;1643744;85;21638;-81
2021/01/20 11:31:10;;;;;;;20.30;11.78;;;;;;;4.47;88.69;99771.05;1641215;87;21186;-80
2021/01/20 11:33:37;;;;;;;26.45;14.33;;;;;;;4.57;88.56;99789.77;1613142;87;21220;-81
2021/01/20 11:36:07;;;;;;;23.20;13.62;;;;;;;4.56;88.54;99783.80;1621448;88;22003;-81
2021/01/20 11:38:34;;;;;;;20.97;12.25;;;;;;;4.58;88.48;99784.64;1630793;85;21236;-80
2021/01/20 11:41:00;;;;;;;20.68;12.07;;;;;;;4.60;88.56;99776.95;1650751;84;21254;-81